Time;durP1;ratioP1;P1;durP2;ratioP2;P2;SDS_P1;SDS_P2;PMS_P1;PMS_P2;Temp;Humidity;BMP_temperature;BMP_pressure;BME280_temperature;BME280_humidity;BME280_pressure;Samples;Min_cycle;Max_cycle;Signal;HPM_P1;HPM_P2
2023/12/13 00:01:25;;;;;;;;;;;;;;;;;;5137865;27;997;-68
2023/12/13 00:03:51;;;;;;;;;;;;;;;;;;5137276;27;871;-68
2023/12/13 00:06:16;;;;;;;;;;;;;;;;;;5137473;27;1964;-68
2023/12/13 00:08:41;;;;;;;;;;;;;;;;;;5137406;27;983;-68
2023/12/13 00:11:07;;;;;;;;;;;;;;;;;;5136377;27;835;-68
2023/12/13 00:13:32;;;;;;;;;;;;;;;;;;5136997;27;859;-67
2023/12/13 00:15:57;;;;;;;;;;;;;;;;;;5137353;27;923;-68
2023/12/13 00:18:23;;;;;;;;;;;;;;;;;;5137660;27;883;-69
2023/12/13 00:20:48;;;;;;;;;;;;;;;;;;5137472;27;966;-68
2023/12/13 00:23:13;;;;;;;;;;;;;;;;;;5137425;27;1061;-68
2023/12/13 00:25:38;;;;;;;;;;;;;;;;;;5136543;27;1902;-67
2023/12/13 00:28:04;;;;;;;;;;;;;;;;;;5137603;27;812;-68
2023/12/13 00:30:29;;;;;;;;;;;;;;;;;;5137335;27;792;-68
2023/12/13 00:32:54;;;;;;;;;;;;;;;;;;5137002;27;1527;-68
2023/12/13 00:35:19;;;;;;;;;;;;;;;;;;5137738;27;899;-68
2023/12/13 00:37:45;;;;;;;;;;;;;;;;;;5118997;27;804;-67
2023/12/13 00:40:11;;;;;;;;;;;;;;;;;;5137492;27;918;-68
2023/12/13 00:42:37;;;;;;;;;;;;;;;;;;5137243;27;1388;-69
2023/12/13 00:45:02;;;;;;;;;;;;;;;;;;5136532;27;1993;-68
2023/12/13 00:47:27;;;;;;;;;;;;;;;;;;5136891;27;865;-67
2023/12/13 00:49:54;;;;;;;;;;;;;;;;;;5136370;27;1024;-67
2023/12/13 00:52:19;;;;;;;;;;;;;;;;;;5136862;27;856;-68
2023/12/13 00:54:44;;;;;;;;;;;;;;;;;;5136885;27;899;-67
2023/12/13 00:57:09;;;;;;;;;;;;;;;;;;5136952;27;887;-68
2023/12/13 00:59:35;;;;;;;;;;;;;;;;;;5136450;27;899;-68
2023/12/13 01:02:00;;;;;;;;;;;;;;;;;;5136617;27;828;-68
2023/12/13 01:04:25;;;;;;;;;;;;;;;;;;5136301;27;989;-68
2023/12/13 01:06:51;;;;;;;;;;;;;;;;;;5136344;27;1964;-68
2023/12/13 01:09:16;;;;;;;;;;;;;;;;;;5136217;27;867;-68
2023/12/13 01:11:41;;;;;;;;;;;;;;;;;;5135891;27;946;-68
2023/12/13 01:14:07;;;;;;;;;;;;;;;;;;5136247;27;836;-68
2023/12/13 01:16:33;;;;;;;;;;;;;;;;;;5117985;27;1336;-68
2023/12/13 01:18:59;;;;;;;;;;;;;;;;;;5135882;27;911;-68
2023/12/13 01:21:24;;;;;;;;;;;;;;;;;;5135969;27;990;-68
2023/12/13 01:23:50;;;;;;;;;;;;;;;;;;5136447;27;856;-67
2023/12/13 01:26:15;;;;;;;;;;;;;;;;;;5135695;27;1898;-68
2023/12/13 01:28:40;;;;;;;;;;;;;;;;;;5135370;27;959;-67
2023/12/13 01:31:09;;;;;;;;;;;;;;;;;;5136101;27;847;-67
2023/12/13 01:33:34;;;;;;;;;;;;;;;;;;5135936;27;880;-67
2023/12/13 01:36:02;;;;;;;;;;;;;;;;;;5117756;27;1049;-67
2023/12/13 01:38:27;;;;;;;;;;;;;;;;;;5136048;27;800;-68
2023/12/13 01:40:53;;;;;;;;;;;;;;;;;;5135804;27;844;-68
2023/12/13 01:43:24;;;;;;;;;;;;;;;;;;5135886;27;963;-67
2023/12/13 01:45:53;;;;;;;;;;;;;;;;;;5117129;27;1905;-69
2023/12/13 01:48:18;;;;;;;;;;;;;;;;;;5135455;27;967;-68
2023/12/13 01:50:44;;;;;;;;;;;;;;;;;;5135817;27;971;-67
2023/12/13 01:53:10;;;;;;;;;;;;;;;;;;5135581;27;945;-68
2023/12/13 01:55:35;;;;;;;;;;;;;;;;;;5135931;27;902;-68
2023/12/13 01:58:03;;;;;;;;;;;;;;;;;;5135681;27;950;-68
2023/12/13 02:00:29;;;;;;;;;;;;;;;;;;5136018;27;878;-68
2023/12/13 02:02:55;;;;;;;;;;;;;;;;;;5135648;27;882;-68
2023/12/13 02:05:22;;;;;;;;;;;;;;;;;;5135231;27;1963;-69
2023/12/13 02:07:48;;;;;;;;;;;;;;;;;;5135760;27;876;-68
2023/12/13 02:10:13;;;;;;;;;;;;;;;;;;5135030;27;953;-68
2023/12/13 02:12:38;;;;;;;;;;;;;;;;;;5135136;27;911;-68
2023/12/13 02:15:04;;;;;;;;;;;;;;;;;;5134990;27;815;-68
2023/12/13 02:17:30;;;;;;;;;;;;;;;;;;5134667;27;860;-68
2023/12/13 02:19:55;;;;;;;;;;;;;;;;;;5135158;27;922;-67
2023/12/13 02:22:20;;;;;;;;;;;;;;;;;;5134504;27;824;-68
2023/12/13 02:24:47;;;;;;;;;;;;;;;;;;5116218;27;895;-67
2023/12/13 02:27:13;;;;;;;;;;;;;;;;;;5133683;27;1885;-68
2023/12/13 02:29:38;;;;;;;;;;;;;;;;;;5131648;27;1270;-68
2023/12/13 02:32:03;;;;;;;;;;;;;;;;;;5131721;28;1215;-69
2023/12/13 02:34:29;;;;;;;;;;;;;;;;;;5130790;27;1159;-68
2023/12/13 02:36:54;;;;;;;;;;;;;;;;;;5131680;28;1144;-68
2023/12/13 02:39:20;;;;;;;;;;;;;;;;;;5132750;27;1187;-68
2023/12/13 02:41:46;;;;;;;;;;;;;;;;;;5134837;27;855;-68
2023/12/13 02:44:11;;;;;;;;;;;;;;;;;;5134183;27;860;-69
2023/12/13 02:46:36;;;;;;;;;;;;;;;;;;5116037;28;1897;-68
2023/12/13 02:49:01;;;;;;;;;;;;;;;;;;5134063;27;974;-68
2023/12/13 02:51:27;;;;;;;;;;;;;;;;;;5134339;27;951;-67
2023/12/13 02:53:52;;;;;;;;;;;;;;;;;;5134326;28;796;-68
2023/12/13 02:56:17;;;;;;;;;;;;;;;;;;5134431;28;812;-67
2023/12/13 02:58:42;;;;;;;;;;;;;;;;;;5134544;27;900;-68
2023/12/13 03:01:08;;;;;;;;;;;;;;;;;;5134698;28;982;-68
2023/12/13 03:03:33;;;;;;;;;;;;;;;;;;5134284;27;1038;-67
2023/12/13 03:05:58;;;;;;;;;;;;;;;;;;5133997;27;1889;-68
2023/12/13 03:08:23;;;;;;;;;;;;;;;;;;5134317;28;1041;-68
2023/12/13 03:10:49;;;;;;;;;;;;;;;;;;5134087;27;883;-68
2023/12/13 03:13:14;;;;;;;;;;;;;;;;;;5133832;27;1348;-67
2023/12/13 03:15:39;;;;;;;;;;;;;;;;;;5134029;27;996;-67
2023/12/13 03:18:04;;;;;;;;;;;;;;;;;;5134350;27;1065;-67
2023/12/13 03:20:30;;;;;;;;;;;;;;;;;;5116445;28;998;-67
2023/12/13 03:22:55;;;;;;;;;;;;;;;;;;5133981;28;879;-68
2023/12/13 03:25:21;;;;;;;;;;;;;;;;;;5134762;28;1909;-68
2023/12/13 03:27:46;;;;;;;;;;;;;;;;;;5134576;28;856;-67
2023/12/13 03:30:12;;;;;;;;;;;;;;;;;;5134614;27;887;-67
2023/12/13 03:32:38;;;;;;;;;;;;;;;;;;5134752;28;902;-68
2023/12/13 03:35:04;;;;;;;;;;;;;;;;;;5134342;28;921;-68
2023/12/13 03:37:31;;;;;;;;;;;;;;;;;;5116131;28;2291;-68
2023/12/13 03:39:56;;;;;;;;;;;;;;;;;;5134463;27;945;-67
2023/12/13 03:42:21;;;;;;;;;;;;;;;;;;5116357;27;908;-68
2023/12/13 03:44:47;;;;;;;;;;;;;;;;;;5135279;27;831;-68
2023/12/13 03:47:12;;;;;;;;;;;;;;;;;;5138330;27;1979;-68
2023/12/13 03:49:37;;;;;;;;;;;;;;;;;;5119874;27;919;-68
2023/12/13 03:52:03;;;;;;;;;;;;;;;;;;5119537;27;906;-68
2023/12/13 03:54:28;;;;;;;;;;;;;;;;;;5138105;27;998;-67
2023/12/13 03:56:53;;;;;;;;;;;;;;;;;;5137770;27;808;-68
2023/12/13 03:59:18;;;;;;;;;;;;;;;;;;5137828;27;1052;-68
2023/12/13 04:01:44;;;;;;;;;;;;;;;;;;5137208;27;918;-67
2023/12/13 04:04:09;;;;;;;;;;;;;;;;;;5137333;27;859;-67
2023/12/13 04:06:34;;;;;;;;;;;;;;;;;;5137463;27;1957;-68
2023/12/13 04:08:59;;;;;;;;;;;;;;;;;;5137197;27;911;-69
2023/12/13 04:11:25;;;;;;;;;;;;;;;;;;5137201;27;864;-68
2023/12/13 04:13:51;;;;;;;;;;;;;;;;;;5118885;27;943;-68
2023/12/13 04:16:16;;;;;;;;;;;;;;;;;;5137245;27;985;-68
2023/12/13 04:18:41;;;;;;;;;;;;;;;;;;5137430;27;931;-67
2023/12/13 04:21:07;;;;;;;;;;;;;;;;;;5137062;27;840;-67
2023/12/13 04:23:32;;;;;;;;;;;;;;;;;;5137009;27;769;-69
2023/12/13 04:25:57;;;;;;;;;;;;;;;;;;5136732;27;1963;-68
2023/12/13 04:28:23;;;;;;;;;;;;;;;;;;5137138;27;990;-68
2023/12/13 04:30:48;;;;;;;;;;;;;;;;;;5118577;27;1204;-68
2023/12/13 04:33:18;;;;;;;;;;;;;;;;;;5136309;27;1121;-68
2023/12/13 04:35:43;;;;;;;;;;;;;;;;;;5136821;27;916;-67
2023/12/13 04:38:08;;;;;;;;;;;;;;;;;;5136931;27;852;-68
2023/12/13 04:40:34;;;;;;;;;;;;;;;;;;5136736;27;867;-68
2023/12/13 04:43:00;;;;;;;;;;;;;;;;;;5136269;27;881;-67
2023/12/13 04:45:25;;;;;;;;;;;;;;;;;;5136424;27;1909;-68
2023/12/13 04:47:50;;;;;;;;;;;;;;;;;;5136799;27;1037;-68
2023/12/13 04:50:16;;;;;;;;;;;;;;;;;;5136355;27;1022;-67
2023/12/13 04:52:41;;;;;;;;;;;;;;;;;;5136609;27;1123;-68
2023/12/13 04:55:06;;;;;;;;;;;;;;;;;;5136304;27;1037;-68
2023/12/13 04:57:32;;;;;;;;;;;;;;;;;;5136119;27;913;-67
2023/12/13 04:59:57;;;;;;;;;;;;;;;;;;5136171;27;1249;-68
2023/12/13 05:02:22;;;;;;;;;;;;;;;;;;5135376;27;1183;-68
2023/12/13 05:04:48;;;;;;;;;;;;;;;;;;5114519;27;1207;-68
2023/12/13 05:07:13;;;;;;;;;;;;;;;;;;5114254;27;1890;-67
2023/12/13 05:09:38;;;;;;;;;;;;;;;;;;5136211;27;1209;-67
2023/12/13 05:12:04;;;;;;;;;;;;;;;;;;5136548;27;1858;-68
2023/12/13 05:14:29;;;;;;;;;;;;;;;;;;5136631;27;955;-68
2023/12/13 05:16:54;;;;;;;;;;;;;;;;;;5136113;27;868;-68
2023/12/13 05:19:20;;;;;;;;;;;;;;;;;;5136294;27;900;-68
2023/12/13 05:21:45;;;;;;;;;;;;;;;;;;5135880;27;1668;-67
2023/12/13 05:24:11;;;;;;;;;;;;;;;;;;5136060;27;943;-67
2023/12/13 05:26:36;;;;;;;;;;;;;;;;;;5136511;27;1968;-68
2023/12/13 05:29:02;;;;;;;;;;;;;;;;;;5135795;27;867;-68
2023/12/13 05:31:28;;;;;;;;;;;;;;;;;;5135730;27;822;-68
2023/12/13 05:33:53;;;;;;;;;;;;;;;;;;5134836;27;1116;-68
2023/12/13 05:36:18;;;;;;;;;;;;;;;;;;5132543;27;1152;-68
2023/12/13 05:38:43;;;;;;;;;;;;;;;;;;5133282;27;1171;-68
2023/12/13 05:41:09;;;;;;;;;;;;;;;;;;5134087;27;1164;-68
2023/12/13 05:43:35;;;;;;;;;;;;;;;;;;5135577;27;962;-67
2023/12/13 05:46:01;;;;;;;;;;;;;;;;;;5135160;27;1969;-68
2023/12/13 05:48:26;;;;;;;;;;;;;;;;;;5135201;27;935;-67
2023/12/13 05:50:51;;;;;;;;;;;;;;;;;;5134882;27;993;-67
2023/12/13 05:53:16;;;;;;;;;;;;;;;;;;5134734;27;1001;-68
2023/12/13 05:55:42;;;;;;;;;;;;;;;;;;5116577;27;888;-68
2023/12/13 05:58:07;;;;;;;;;;;;;;;;;;5134961;27;1024;-68
2023/12/13 06:00:34;;;;;;;;;;;;;;;;;;5135269;27;852;-68
2023/12/13 06:03:00;;;;;;;;;;;;;;;;;;5135114;27;895;-68
2023/12/13 06:05:25;;;;;;;;;;;;;;;;;;5135197;27;1894;-68
2023/12/13 06:07:51;;;;;;;;;;;;;;;;;;5135034;27;914;-69
2023/12/13 06:10:17;;;;;;;;;;;;;;;;;;5135290;27;926;-68
2023/12/13 06:12:42;;;;;;;;;;;;;;;;;;5116718;27;836;-67
2023/12/13 06:15:07;;;;;;;;;;;;;;;;;;5134915;27;816;-67
2023/12/13 06:17:33;;;;;;;;;;;;;;;;;;5134721;27;824;-68
2023/12/13 06:19:58;;;;;;;;;;;;;;;;;;5099277;27;845;-68
2023/12/13 06:22:23;;;;;;;;;;;;;;;;;;5134828;27;995;-69
2023/12/13 06:24:48;;;;;;;;;;;;;;;;;;5134381;27;895;-69
2023/12/13 06:27:14;;;;;;;;;;;;;;;;;;5134496;27;1909;-69
2023/12/13 06:29:39;;;;;;;;;;;;;;;;;;5099696;27;1159;-69
2023/12/13 06:32:04;;;;;;;;;;;;;;;;;;5134686;27;975;-67
2023/12/13 06:34:30;;;;;;;;;;;;;;;;;;5134778;28;858;-68
2023/12/13 06:36:55;;;;;;;;;;;;;;;;;;5116531;28;846;-68
2023/12/13 06:39:21;;;;;;;;;;;;;;;;;;5134490;27;885;-68
2023/12/13 06:41:46;;;;;;;;;;;;;;;;;;5135306;27;839;-68
2023/12/13 06:44:12;;;;;;;;;;;;;;;;;;5134745;28;832;-67
2023/12/13 06:46:37;;;;;;;;;;;;;;;;;;5135028;28;1964;-68
2023/12/13 06:49:04;;;;;;;;;;;;;;;;;;5116148;28;998;-69
2023/12/13 06:51:29;;;;;;;;;;;;;;;;;;5134969;27;972;-68
2023/12/13 06:53:54;;;;;;;;;;;;;;;;;;5134730;27;792;-68
2023/12/13 06:56:20;;;;;;;;;;;;;;;;;;5116633;28;1684;-68
2023/12/13 06:58:45;;;;;;;;;;;;;;;;;;5116898;28;924;-68
2023/12/13 07:01:11;;;;;;;;;;;;;;;;;;5134894;27;852;-68
2023/12/13 07:03:36;;;;;;;;;;;;;;;;;;5135763;27;1250;-69
2023/12/13 07:06:03;;;;;;;;;;;;;;;;;;5133739;28;1951;-68
2023/12/13 07:08:28;;;;;;;;;;;;;;;;;;5133558;28;1178;-69
2023/12/13 07:10:53;;;;;;;;;;;;;;;;;;5130940;27;1159;-69
2023/12/13 07:13:18;;;;;;;;;;;;;;;;;;5131963;28;1140;-66
2023/12/13 07:15:43;;;;;;;;;;;;;;;;;;5114263;28;1530;-67
2023/12/13 07:18:09;;;;;;;;;;;;;;;;;;5132558;28;1198;-69
2023/12/13 07:20:35;;;;;;;;;;;;;;;;;;5136429;27;861;-68
2023/12/13 07:23:00;;;;;;;;;;;;;;;;;;5138400;27;938;-69
2023/12/13 07:25:26;;;;;;;;;;;;;;;;;;5138033;27;1972;-68
2023/12/13 07:27:51;;;;;;;;;;;;;;;;;;5138148;27;902;-68
2023/12/13 07:30:16;;;;;;;;;;;;;;;;;;5119275;27;1245;-68
2023/12/13 07:32:43;;;;;;;;;;;;;;;;;;5136468;27;970;-68
2023/12/13 07:35:09;;;;;;;;;;;;;;;;;;5137799;27;872;-68
2023/12/13 07:37:35;;;;;;;;;;;;;;;;;;5137752;27;891;-68
2023/12/13 07:40:00;;;;;;;;;;;;;;;;;;5138408;27;816;-70
2023/12/13 07:42:27;;;;;;;;;;;;;;;;;;5137829;27;871;-68
2023/12/13 07:44:53;;;;;;;;;;;;;;;;;;5137632;27;812;-67
2023/12/13 07:47:18;;;;;;;;;;;;;;;;;;5138057;27;1973;-68
2023/12/13 07:49:43;;;;;;;;;;;;;;;;;;5137961;27;987;-68
2023/12/13 07:52:08;;;;;;;;;;;;;;;;;;5137834;27;914;-67
2023/12/13 07:54:34;;;;;;;;;;;;;;;;;;5119072;27;1360;-68
2023/12/13 07:57:00;;;;;;;;;;;;;;;;;;5137906;27;843;-67
2023/12/13 07:59:25;;;;;;;;;;;;;;;;;;5138325;27;1160;-68
2023/12/13 08:01:50;;;;;;;;;;;;;;;;;;5136489;27;1246;-68
2023/12/13 08:04:16;;;;;;;;;;;;;;;;;;5133944;27;1218;-68
2023/12/13 08:06:41;;;;;;;;;;;;;;;;;;5135038;27;1897;-69
2023/12/13 08:09:09;;;;;;;;;;;;;;;;;;5116539;27;1176;-68
2023/12/13 08:11:35;;;;;;;;;;;;;;;;;;5134735;27;1238;-67
2023/12/13 08:14:00;;;;;;;;;;;;;;;;;;5116813;27;1258;-68
2023/12/13 08:16:25;;;;;;;;;;;;;;;;;;5135208;27;1195;-69
2023/12/13 08:18:52;;;;;;;;;;;;;;;;;;5136186;27;1179;-68
2023/12/13 08:21:17;;;;;;;;;;;;;;;;;;5137694;27;930;-68
2023/12/13 08:23:42;;;;;;;;;;;;;;;;;;5137393;27;836;-67
2023/12/13 08:26:12;;;;;;;;;;;;;;;;;;5137330;27;1897;-68
2023/12/13 08:28:37;;;;;;;;;;;;;;;;;;5137830;27;816;-68
2023/12/13 08:31:03;;;;;;;;;;;;;;;;;;5136672;27;836;-68
2023/12/13 08:33:28;;;;;;;;;;;;;;;;;;5137029;27;1008;-68
2023/12/13 08:35:54;;;;;;;;;;;;;;;;;;5136710;27;1014;-67
2023/12/13 08:38:19;;;;;;;;;;;;;;;;;;5137424;27;872;-68
2023/12/13 08:40:44;;;;;;;;;;;;;;;;;;5116509;27;1172;-68
2023/12/13 08:43:10;;;;;;;;;;;;;;;;;;5133707;27;1143;-68
2023/12/13 08:45:35;;;;;;;;;;;;;;;;;;5135732;27;1960;-69
2023/12/13 08:48:00;;;;;;;;;;;;;;;;;;5136224;27;924;-68
2023/12/13 08:50:25;;;;;;;;;;;;;;;;;;5137104;27;1285;-67
2023/12/13 08:52:51;;;;;;;;;;;;;;;;;;5136655;27;1048;-68
2023/12/13 08:55:18;;;;;;;;;;;;;;;;;;5136129;27;869;-67
2023/12/13 08:57:43;;;;;;;;;;;;;;;;;;5136533;27;906;-67
2023/12/13 09:00:09;;;;;;;;;;;;;;;;;;5136103;27;963;-67
2023/12/13 09:02:34;;;;;;;;;;;;;;;;;;5135777;27;1231;-68
2023/12/13 09:05:00;;;;;;;;;;;;;;;;;;5133206;27;1214;-68
2023/12/13 09:07:25;;;;;;;;;;;;;;;;;;5131956;27;1930;-68
2023/12/13 09:09:51;;;;;;;;;;;;;;;;;;5132910;27;1072;-68
2023/12/13 09:12:16;;;;;;;;;;;;;;;;;;5133061;27;1226;-68
2023/12/13 09:14:41;;;;;;;;;;;;;;;;;;5133177;27;1123;-68
2023/12/13 09:17:07;;;;;;;;;;;;;;;;;;5133029;27;1175;-68
2023/12/13 09:19:32;;;;;;;;;;;;;;;;;;5133658;27;1250;-68
2023/12/13 09:21:57;;;;;;;;;;;;;;;;;;5133052;27;1207;-68
2023/12/13 09:24:23;;;;;;;;;;;;;;;;;;5133220;27;1131;-68
2023/12/13 09:26:51;;;;;;;;;;;;;;;;;;5133322;27;1976;-67
2023/12/13 09:29:16;;;;;;;;;;;;;;;;;;5133282;27;1191;-67
2023/12/13 09:31:42;;;;;;;;;;;;;;;;;;5132702;27;1218;-68
2023/12/13 09:34:07;;;;;;;;;;;;;;;;;;5133063;27;1223;-68
2023/12/13 09:36:33;;;;;;;;;;;;;;;;;;5133974;27;1213;-68
2023/12/13 09:38:58;;;;;;;;;;;;;;;;;;5135406;27;897;-68
2023/12/13 09:41:25;;;;;;;;;;;;;;;;;;5135342;27;902;-68
2023/12/13 09:43:50;;;;;;;;;;;;;;;;;;5134855;27;951;-67
2023/12/13 09:46:17;;;;;;;;;;;;;;;;;;5135159;27;1922;-67
2023/12/13 09:48:43;;;;;;;;;;;;;;;;;;5135659;27;1128;-65
2023/12/13 09:51:09;;;;;;;;;;;;;;;;;;5134935;27;1214;-68
2023/12/13 09:53:38;;;;;;;;;;;;;;;;;;5136320;27;875;-68
2023/12/13 09:56:04;;;;;;;;;;;;;;;;;;5136308;27;851;-68
2023/12/13 09:58:29;;;;;;;;;;;;;;;;;;5117653;27;920;-67
2023/12/13 10:00:56;;;;;;;;;;;;;;;;;;5135879;27;958;-67
2023/12/13 10:03:21;;;;;;;;;;;;;;;;;;5136475;27;892;-66
2023/12/13 10:05:48;;;;;;;;;;;;;;;;;;5135460;27;1890;-68
2023/12/13 10:08:13;;;;;;;;;;;;;;;;;;5135671;27;956;-68
2023/12/13 10:10:39;;;;;;;;;;;;;;;;;;5136106;27;975;-67
2023/12/13 10:13:07;;;;;;;;;;;;;;;;;;5136300;27;848;-68
2023/12/13 10:15:32;;;;;;;;;;;;;;;;;;5136282;27;876;-68
2023/12/13 10:17:59;;;;;;;;;;;;;;;;;;5135214;27;962;-68
2023/12/13 10:20:25;;;;;;;;;;;;;;;;;;5135830;27;871;-68
2023/12/13 10:22:50;;;;;;;;;;;;;;;;;;5136243;27;820;-69
2023/12/13 10:25:18;;;;;;;;;;;;;;;;;;5117503;27;1344;-69
2023/12/13 10:27:43;;;;;;;;;;;;;;;;;;5135190;27;1964;-69
2023/12/13 10:30:10;;;;;;;;;;;;;;;;;;5135048;27;812;-66
2023/12/13 10:32:35;;;;;;;;;;;;;;;;;;5135862;27;838;-66
2023/12/13 10:35:03;;;;;;;;;;;;;;;;;;5135548;28;1013;-67
2023/12/13 10:37:30;;;;;;;;;;;;;;;;;;5135111;28;1183;-65
2023/12/13 10:39:56;;;;;;;;;;;;;;;;;;5134935;28;852;-64
2023/12/13 10:42:24;;;;;;;;;;;;;;;;;;5134696;28;824;-65
2023/12/13 10:44:50;;;;;;;;;;;;;;;;;;5135706;28;852;-65
2023/12/13 10:47:16;;;;;;;;;;;;;;;;;;5135216;28;1878;-68
2023/12/13 10:49:43;;;;;;;;;;;;;;;;;;5135022;28;828;-67
2023/12/13 10:52:09;;;;;;;;;;;;;;;;;;5135277;28;883;-67
2023/12/13 10:54:36;;;;;;;;;;;;;;;;;;5135656;27;871;-67
2023/12/13 10:57:02;;;;;;;;;;;;;;;;;;5139016;27;881;-65
2023/12/13 10:59:28;;;;;;;;;;;;;;;;;;5139071;27;1096;-67
2023/12/13 11:01:54;;;;;;;;;;;;;;;;;;5120636;27;1185;-67
2023/12/13 11:04:20;;;;;;;;;;;;;;;;;;5139793;27;826;-68
2023/12/13 11:06:46;;;;;;;;;;;;;;;;;;5138727;27;1893;-67
2023/12/13 11:09:17;;;;;;;;;;;;;;;;;;5139685;27;915;-66
2023/12/13 11:11:44;;;;;;;;;;;;;;;;;;5134437;27;847;-69
2023/12/13 11:14:10;;;;;;;;;;;;;;;;;;5118213;27;1210;-69
2023/12/13 11:16:40;;;;;;;;;;;;;;;;;;5138177;27;906;-68
2023/12/13 11:19:05;;;;;;;;;;;;;;;;;;5137936;27;955;-69
2023/12/13 11:21:32;;;;;;;;;;;;;;;;;;5138107;27;889;-69
2023/12/13 11:24:00;;;;;;;;;;;;;;;;;;5137946;27;863;-69
2023/12/13 11:26:30;;;;;;;;;;;;;;;;;;5137825;27;1897;-69
2023/12/13 11:28:56;;;;;;;;;;;;;;;;;;5137956;27;875;-69
2023/12/13 11:31:22;;;;;;;;;;;;;;;;;;5137765;27;868;-69
2023/12/13 11:33:54;;;;;;;;;;;;;;;;;;5138187;27;1057;-69
2023/12/13 11:36:22;;;;;;;;;;;;;;;;;;5137674;27;1271;-69
2023/12/13 11:38:49;;;;;;;;;;;;;;;;;;5137944;27;931;-69
2023/12/13 11:41:14;;;;;;;;;;;;;;;;;;5138906;27;870;-68
2023/12/13 11:43:40;;;;;;;;;;;;;;;;;;5138511;27;923;-69
2023/12/13 11:46:05;;;;;;;;;;;;;;;;;;5138156;27;1903;-68
2023/12/13 11:48:31;;;;;;;;;;;;;;;;;;5137925;27;892;-68
2023/12/13 11:50:56;;;;;;;;;;;;;;;;;;5138083;27;958;-68
2023/12/13 11:53:21;;;;;;;;;;;;;;;;;;5137834;27;907;-68
2023/12/13 11:55:46;;;;;;;;;;;;;;;;;;5119540;27;1670;-69
2023/12/13 11:58:14;;;;;;;;;;;;;;;;;;5137931;27;994;-68
2023/12/13 12:00:41;;;;;;;;;;;;;;;;;;5137377;27;868;-69
2023/12/13 12:03:06;;;;;;;;;;;;;;;;;;5137910;27;785;-69
2023/12/13 12:05:32;;;;;;;;;;;;;;;;;;5137980;27;1977;-68
2023/12/13 12:07:58;;;;;;;;;;;;;;;;;;5137858;27;819;-69
2023/12/13 12:10:23;;;;;;;;;;;;;;;;;;5137325;27;950;-69
2023/12/13 12:12:49;;;;;;;;;;;;;;;;;;5118979;27;2177;-68
2023/12/13 12:15:15;;;;;;;;;;;;;;;;;;5136809;27;838;-68
2023/12/13 12:17:41;;;;;;;;;;;;;;;;;;5136719;27;850;-67
2023/12/13 12:20:07;;;;;;;;;;;;;;;;;;5137326;27;899;-68
2023/12/13 12:22:35;;;;;;;;;;;;;;;;;;5136677;27;814;-68
2023/12/13 12:25:00;;;;;;;;;;;;;;;;;;5136741;27;998;-68
2023/12/13 12:27:26;;;;;;;;;;;;;;;;;;5136882;27;1898;-67
2023/12/13 12:29:52;;;;;;;;;;;;;;;;;;5137107;27;852;-69
2023/12/13 12:32:17;;;;;;;;;;;;;;;;;;5136350;27;884;-69
2023/12/13 12:34:49;;;;;;;;;;;;;;;;;;5136355;27;1014;-69
2023/12/13 12:37:15;;;;;;;;;;;;;;;;;;5136325;27;838;-68
2023/12/13 12:39:40;;;;;;;;;;;;;;;;;;5136349;27;901;-68
2023/12/13 12:42:06;;;;;;;;;;;;;;;;;;5136957;27;918;-68
2023/12/13 12:44:31;;;;;;;;;;;;;;;;;;5135945;27;1022;-68
2023/12/13 12:46:56;;;;;;;;;;;;;;;;;;5136176;27;1972;-68
2023/12/13 12:49:22;;;;;;;;;;;;;;;;;;5136194;27;1074;-68
2023/12/13 12:51:48;;;;;;;;;;;;;;;;;;5136517;27;839;-69
2023/12/13 12:54:13;;;;;;;;;;;;;;;;;;5136073;27;918;-69
2023/12/13 12:56:39;;;;;;;;;;;;;;;;;;5136627;27;895;-69
2023/12/13 12:59:04;;;;;;;;;;;;;;;;;;5136450;27;1048;-69
2023/12/13 13:01:31;;;;;;;;;;;;;;;;;;5136577;27;904;-69
2023/12/13 13:03:56;;;;;;;;;;;;;;;;;;5135967;27;839;-68
2023/12/13 13:06:22;;;;;;;;;;;;;;;;;;5135979;27;1898;-69
2023/12/13 13:08:47;;;;;;;;;;;;;;;;;;5136123;27;1045;-68
2023/12/13 13:11:12;;;;;;;;;;;;;;;;;;5117090;27;868;-68
2023/12/13 13:13:37;;;;;;;;;;;;;;;;;;5135657;27;1250;-68
2023/12/13 13:16:03;;;;;;;;;;;;;;;;;;5135735;27;1037;-68
2023/12/13 13:18:28;;;;;;;;;;;;;;;;;;5135026;27;939;-68
2023/12/13 13:20:55;;;;;;;;;;;;;;;;;;5136041;27;874;-68
2023/12/13 13:23:20;;;;;;;;;;;;;;;;;;5117295;27;997;-67
2023/12/13 13:25:45;;;;;;;;;;;;;;;;;;5135730;27;1968;-68
2023/12/13 13:28:11;;;;;;;;;;;;;;;;;;5135922;27;832;-68
2023/12/13 13:30:37;;;;;;;;;;;;;;;;;;5136148;27;993;-69
2023/12/13 13:33:02;;;;;;;;;;;;;;;;;;5136116;27;907;-69
2023/12/13 13:35:27;;;;;;;;;;;;;;;;;;5135572;27;856;-69
2023/12/13 13:37:53;;;;;;;;;;;;;;;;;;5135690;27;849;-68
2023/12/13 13:40:18;;;;;;;;;;;;;;;;;;5136038;27;864;-68
2023/12/13 13:42:44;;;;;;;;;;;;;;;;;;5135554;27;864;-68
2023/12/13 13:45:10;;;;;;;;;;;;;;;;;;5136337;27;977;-67
2023/12/13 13:47:35;;;;;;;;;;;;;;;;;;5135426;27;1893;-67
2023/12/13 13:50:03;;;;;;;;;;;;;;;;;;5135539;27;899;-68
2023/12/13 13:52:28;;;;;;;;;;;;;;;;;;5135253;27;826;-68
2023/12/13 13:54:53;;;;;;;;;;;;;;;;;;5135498;27;1097;-68
2023/12/13 13:57:19;;;;;;;;;;;;;;;;;;5135054;27;931;-67
2023/12/13 13:59:44;;;;;;;;;;;;;;;;;;5135107;27;948;-67
2023/12/13 14:02:16;;;;;;;;;;;;;;;;;;5134894;27;987;-68
2023/12/13 14:04:42;;;;;;;;;;;;;;;;;;5134440;27;917;-68
2023/12/13 14:07:07;;;;;;;;;;;;;;;;;;5134316;27;1909;-67
2023/12/13 14:09:33;;;;;;;;;;;;;;;;;;5116484;27;935;-68
2023/12/13 14:11:58;;;;;;;;;;;;;;;;;;5134502;27;836;-68
2023/12/13 14:14:23;;;;;;;;;;;;;;;;;;5115378;27;1337;-67
2023/12/13 14:16:48;;;;;;;;;;;;;;;;;;5134235;27;892;-67
2023/12/13 14:19:14;;;;;;;;;;;;;;;;;;5134236;27;991;-68
2023/12/13 14:21:39;;;;;;;;;;;;;;;;;;5134034;27;848;-69
2023/12/13 14:24:04;;;;;;;;;;;;;;;;;;5134331;27;820;-67
2023/12/13 14:26:30;;;;;;;;;;;;;;;;;;5134512;27;2296;-68
2023/12/13 14:28:55;;;;;;;;;;;;;;;;;;5134554;27;875;-68
2023/12/13 14:31:23;;;;;;;;;;;;;;;;;;5134455;27;935;-69
2023/12/13 14:33:49;;;;;;;;;;;;;;;;;;5134452;27;889;-68
2023/12/13 14:36:14;;;;;;;;;;;;;;;;;;5134507;28;849;-68
2023/12/13 14:38:40;;;;;;;;;;;;;;;;;;5134221;27;846;-68
2023/12/13 14:41:05;;;;;;;;;;;;;;;;;;5134548;28;895;-68
2023/12/13 14:43:31;;;;;;;;;;;;;;;;;;5134610;28;855;-68
2023/12/13 14:45:57;;;;;;;;;;;;;;;;;;5134712;28;1967;-68
2023/12/13 14:48:22;;;;;;;;;;;;;;;;;;5115921;28;896;-68
2023/12/13 14:50:47;;;;;;;;;;;;;;;;;;5134493;28;943;-68
2023/12/13 14:53:12;;;;;;;;;;;;;;;;;;5115719;28;1339;-69
2023/12/13 14:55:38;;;;;;;;;;;;;;;;;;5116219;28;935;-68
2023/12/13 14:58:03;;;;;;;;;;;;;;;;;;5134817;28;993;-69
2023/12/13 15:00:29;;;;;;;;;;;;;;;;;;5134403;28;844;-67
2023/12/13 15:02:56;;;;;;;;;;;;;;;;;;5134421;28;942;-68
2023/12/13 15:05:21;;;;;;;;;;;;;;;;;;5134130;28;902;-67
2023/12/13 15:07:48;;;;;;;;;;;;;;;;;;5134239;28;1889;-67
2023/12/13 15:10:14;;;;;;;;;;;;;;;;;;5134562;28;856;-68
2023/12/13 15:12:39;;;;;;;;;;;;;;;;;;5134647;28;820;-68
2023/12/13 15:15:05;;;;;;;;;;;;;;;;;;5134095;28;891;-68
2023/12/13 15:17:31;;;;;;;;;;;;;;;;;;5134154;28;830;-68
2023/12/13 15:19:56;;;;;;;;;;;;;;;;;;5134910;28;994;-68
2023/12/13 15:22:23;;;;;;;;;;;;;;;;;;5134520;28;892;-68
2023/12/13 15:24:48;;;;;;;;;;;;;;;;;;5134301;28;820;-68
2023/12/13 15:27:16;;;;;;;;;;;;;;;;;;5115647;28;1961;-68
2023/12/13 15:29:42;;;;;;;;;;;;;;;;;;5132156;27;1270;-68
2023/12/13 15:32:12;;;;;;;;;;;;;;;;;;5134749;27;819;-68
2023/12/13 15:34:38;;;;;;;;;;;;;;;;;;5133997;28;861;-68
2023/12/13 15:37:03;;;;;;;;;;;;;;;;;;5134079;27;815;-68
2023/12/13 15:39:29;;;;;;;;;;;;;;;;;;5115786;28;1576;-68
2023/12/13 15:41:54;;;;;;;;;;;;;;;;;;5136683;27;934;-62
2023/12/13 15:44:19;;;;;;;;;;;;;;;;;;5137662;27;808;-63
2023/12/13 15:46:44;;;;;;;;;;;;;;;;;;5137331;27;1970;-63
2023/12/13 15:49:10;;;;;;;;;;;;;;;;;;5136830;27;840;-63
2023/12/13 15:51:35;;;;;;;;;;;;;;;;;;5118793;27;1278;-63
2023/12/13 15:54:01;;;;;;;;;;;;;;;;;;5136927;27;952;-63
2023/12/13 15:56:26;;;;;;;;;;;;;;;;;;5136864;27;1194;-63
2023/12/13 15:58:51;;;;;;;;;;;;;;;;;;5137362;27;1007;-63
2023/12/13 16:01:17;;;;;;;;;;;;;;;;;;5136983;27;914;-63
2023/12/13 16:03:42;;;;;;;;;;;;;;;;;;5137368;27;1100;-63
2023/12/13 16:06:08;;;;;;;;;;;;;;;;;;5137612;27;1894;-62
2023/12/13 16:08:33;;;;;;;;;;;;;;;;;;5135127;27;1273;-62
2023/12/13 16:11:00;;;;;;;;;;;;;;;;;;5136830;27;1132;-63
2023/12/13 16:13:26;;;;;;;;;;;;;;;;;;5135956;27;1210;-62
2023/12/13 16:15:51;;;;;;;;;;;;;;;;;;5134052;27;1040;-63
2023/12/13 16:18:18;;;;;;;;;;;;;;;;;;5134048;27;1219;-62
2023/12/13 16:20:43;;;;;;;;;;;;;;;;;;5134735;27;1219;-62
2023/12/13 16:23:08;;;;;;;;;;;;;;;;;;5134073;27;1143;-62
2023/12/13 16:25:33;;;;;;;;;;;;;;;;;;5135275;27;1155;-62
2023/12/13 16:27:59;;;;;;;;;;;;;;;;;;5134041;27;1874;-62
2023/12/13 16:30:24;;;;;;;;;;;;;;;;;;5133781;27;1190;-63
2023/12/13 16:32:52;;;;;;;;;;;;;;;;;;5134485;27;1151;-62
2023/12/13 16:35:17;;;;;;;;;;;;;;;;;;5134285;27;1150;-62
2023/12/13 16:37:43;;;;;;;;;;;;;;;;;;5135862;27;1215;-63
2023/12/13 16:40:11;;;;;;;;;;;;;;;;;;5137129;27;864;-62
2023/12/13 16:42:37;;;;;;;;;;;;;;;;;;5136993;27;863;-62
2023/12/13 16:45:02;;;;;;;;;;;;;;;;;;5137193;27;804;-63
2023/12/13 16:47:28;;;;;;;;;;;;;;;;;;5136237;27;2035;-62
2023/12/13 16:49:54;;;;;;;;;;;;;;;;;;5136443;27;1127;-61
2023/12/13 16:52:20;;;;;;;;;;;;;;;;;;5134956;27;1187;-62
2023/12/13 16:54:47;;;;;;;;;;;;;;;;;;5135676;27;859;-67
2023/12/13 16:57:13;;;;;;;;;;;;;;;;;;5135675;27;910;-67
2023/12/13 16:59:38;;;;;;;;;;;;;;;;;;5136473;27;949;-68
2023/12/13 17:02:06;;;;;;;;;;;;;;;;;;5135897;27;908;-67